Time;durP1;ratioP1;P1;durP2;ratioP2;P2;SDS_P1;SDS_P2;PMS_P1;PMS_P2;Temp;Humidity;BMP_temperature;BMP_pressure;BME280_temperature;BME280_humidity;BME280_pressure;Samples;Min_cycle;Max_cycle;Signal;HPM_P1;HPM_P2
2023/04/19 00:01:33;;;;;;;8.70;4.07;;;;;;;6.13;75.10;102004.00;5026735;28;20061;-62
2023/04/19 00:04:02;;;;;;;10.60;3.92;;;;;;;6.14;74.67;102009.19;5028585;28;20049;-61
2023/04/19 00:06:30;;;;;;;7.97;4.28;;;;;;;6.14;74.46;102011.81;5011180;28;20065;-60
2023/04/19 00:08:57;;;;;;;8.65;3.97;;;;;;;6.14;73.81;101997.88;5028592;28;20175;-58
2023/04/19 00:11:25;;;;;;;9.23;4.22;;;;;;;6.17;73.96;102005.63;5017694;28;20129;-62
2023/04/19 00:13:52;;;;;;;7.18;3.45;;;;;;;6.18;73.72;102010.84;5030819;28;20049;-61
2023/04/19 00:16:20;;;;;;;11.25;3.83;;;;;;;6.19;73.31;102001.25;5010543;28;20054;-61
2023/04/19 00:18:47;;;;;;;9.93;3.80;;;;;;;6.20;73.18;102005.59;5010736;28;20060;-59
2023/04/19 00:21:14;;;;;;;8.82;3.65;;;;;;;6.21;72.70;101997.69;5025583;28;20053;-61
2023/04/19 00:23:41;;;;;;;6.63;3.80;;;;;;;6.22;72.62;101998.59;5025654;28;20053;-59
2023/04/19 00:26:10;;;;;;;6.82;3.47;;;;;;;6.24;72.05;101987.19;5024659;28;20053;-58
2023/04/19 00:28:37;;;;;;;7.32;3.67;;;;;;;6.24;71.83;101995.03;5029453;28;20045;-59
2023/04/19 00:31:04;;;;;;;9.13;3.97;;;;;;;6.21;71.53;101987.25;5025914;28;20061;-60
2023/04/19 00:33:32;;;;;;;8.95;3.22;;;;;;;6.22;70.60;101989.00;5024351;28;20137;-58
2023/04/19 00:35:59;;;;;;;9.55;4.20;;;;;;;6.21;70.42;101995.09;5009922;28;20053;-61
2023/04/19 00:38:26;;;;;;;7.95;3.13;;;;;;;6.21;70.58;101996.84;5025303;28;20053;-62
2023/04/19 00:40:54;;;;;;;6.85;3.33;;;;;;;6.20;70.17;101995.97;5025932;28;20591;-62
2023/04/19 00:43:21;;;;;;;7.68;3.55;;;;;;;6.16;69.33;101994.31;4990667;28;20463;-58
2023/04/19 00:45:48;;;;;;;8.48;4.07;;;;;;;6.12;69.14;101994.41;5005788;28;20083;-59
2023/04/19 00:48:16;;;;;;;5.63;3.45;;;;;;;6.09;69.71;101996.19;5026678;28;20121;-61
2023/04/19 00:50:43;;;;;;;11.60;3.35;;;;;;;6.08;69.14;101985.78;5025648;28;21348;-59
2023/04/19 00:53:11;;;;;;;15.10;3.30;;;;;;;6.08;69.27;101993.63;5025292;28;20060;-60
2023/04/19 00:55:38;;;;;;;9.25;3.67;;;;;;;6.01;68.43;101986.78;5027023;28;20058;-57
2023/04/19 00:58:07;;;;;;;8.73;3.67;;;;;;;6.00;68.66;101993.75;5031248;28;20129;-59
2023/04/19 01:00:35;;;;;;;6.80;3.08;;;;;;;5.98;68.96;101992.03;5026488;28;20045;-59
2023/04/19 01:03:02;;;;;;;7.63;4.28;;;;;;;5.94;68.54;101988.63;5024550;28;20561;-58
2023/04/19 01:05:30;;;;;;;6.47;3.55;;;;;;;5.91;68.45;101983.44;5000982;28;21236;-61
2023/04/19 01:07:57;;;;;;;6.63;3.13;;;;;;;5.90;68.70;101989.56;5016943;28;20049;-60
2023/04/19 01:10:25;;;;;;;9.40;3.58;;;;;;;5.87;68.18;101988.75;5021876;28;20144;-59
2023/04/19 01:12:52;;;;;;;12.82;3.63;;;;;;;5.82;67.91;101987.06;5018722;28;20058;-61
2023/04/19 01:15:19;;;;;;;9.02;2.88;;;;;;;5.82;68.23;101991.44;5026966;28;20065;-61
2023/04/19 01:17:47;;;;;;;5.47;3.25;;;;;;;5.81;68.27;101992.31;5020703;28;20130;-60
2023/04/19 01:20:14;;;;;;;7.35;3.47;;;;;;;5.76;68.57;101989.78;5021643;28;20061;-60
2023/04/19 01:22:41;;;;;;;6.35;3.47;;;;;;;5.73;68.29;101991.59;5025279;28;20045;-61
2023/04/19 01:25:09;;;;;;;8.60;3.58;;;;;;;5.65;68.28;101986.50;5023790;28;20057;-60
2023/04/19 01:27:36;;;;;;;5.13;3.13;;;;;;;5.58;67.98;101980.50;5027737;28;20056;-59
2023/04/19 01:30:04;;;;;;;8.40;3.15;;;;;;;5.53;68.11;101986.69;5026074;28;20064;-60
2023/04/19 01:32:31;;;;;;;8.48;3.35;;;;;;;5.44;68.35;101979.84;5025127;28;20060;-59
2023/04/19 01:34:58;;;;;;;8.90;3.95;;;;;;;5.40;68.34;101982.53;5043864;22;20057;-60
2023/04/19 01:37:26;;;;;;;5.45;3.53;;;;;;;5.33;68.86;101979.19;5021769;28;20708;-62
2023/04/19 01:39:53;;;;;;;8.70;3.00;;;;;;;5.28;68.43;101981.00;5022944;28;20056;-61
2023/04/19 01:42:20;;;;;;;6.30;3.22;;;;;;;5.24;68.97;101977.56;5033403;28;20057;-65
2023/04/19 01:44:48;;;;;;;5.28;3.20;;;;;;;5.20;69.33;101973.28;5022719;28;20480;-62
2023/04/19 01:47:15;;;;;;;6.55;3.47;;;;;;;5.16;69.15;101975.94;5026237;28;20060;-63
2023/04/19 01:49:42;;;;;;;6.30;3.53;;;;;;;5.11;69.14;101972.56;5025289;28;20053;-65
2023/04/19 01:52:10;;;;;;;8.00;3.38;;;;;;;5.03;69.87;101970.91;5021865;28;20059;-58
2023/04/19 01:54:37;;;;;;;5.80;3.05;;;;;;;4.98;70.40;101971.84;5021797;28;20068;-60
2023/04/19 01:57:04;;;;;;;6.95;3.33;;;;;;;4.91;70.85;101965.88;5025629;28;20053;-61
2023/04/19 01:59:31;;;;;;;5.65;2.95;;;;;;;4.88;70.36;101970.28;5022942;28;20055;-62
2023/04/19 02:01:59;;;;;;;7.88;3.28;;;;;;;4.83;70.47;101962.50;5018829;28;20054;-61
2023/04/19 02:04:26;;;;;;;8.43;4.03;;;;;;;4.77;70.95;101968.69;5025030;28;20073;-65
2023/04/19 02:06:53;;;;;;;9.57;3.58;;;;;;;4.76;71.38;101960.84;5021714;28;20132;-63
2023/04/19 02:09:20;;;;;;;6.28;3.78;;;;;;;4.72;70.92;101954.81;5019588;28;20065;-71
2023/04/19 02:11:48;;;;;;;7.53;3.67;;;;;;;4.69;71.53;101961.84;5028706;28;20145;-63
2023/04/19 02:14:15;;;;;;;6.30;3.42;;;;;;;4.67;71.10;101958.38;5029668;28;20065;-58
2023/04/19 02:16:43;;;;;;;6.97;3.47;;;;;;;4.64;71.80;101953.19;5027983;28;20076;-63
2023/04/19 02:19:10;;;;;;;5.10;3.20;;;;;;;4.60;71.81;101952.38;5016848;28;20053;-59
2023/04/19 02:21:37;;;;;;;8.27;3.63;;;;;;;4.56;72.13;101953.31;5019321;28;20083;-59
2023/04/19 02:24:05;;;;;;;5.28;3.33;;;;;;;4.52;72.00;101957.69;5034480;28;20048;-60
2023/04/19 02:26:32;;;;;;;10.95;3.97;;;;;;;4.49;72.03;101952.50;5031536;28;20139;-65
2023/04/19 02:28:59;;;;;;;7.38;3.50;;;;;;;4.46;72.54;101955.16;5024297;28;20510;-61
2023/04/19 02:31:26;;;;;;;5.65;3.58;;;;;;;4.45;72.61;101952.56;5028912;28;20304;-59
2023/04/19 02:33:54;;;;;;;7.43;3.85;;;;;;;4.42;72.77;101950.88;5035286;28;20504;-62
2023/04/19 02:36:21;;;;;;;4.63;3.00;;;;;;;4.39;72.63;101944.81;5022889;28;20591;-61
2023/04/19 02:38:48;;;;;;;6.47;3.65;;;;;;;4.37;72.31;101946.56;5031130;28;20060;-64
2023/04/19 02:41:15;;;;;;;7.80;3.22;;;;;;;4.35;73.23;101937.91;5033307;28;20053;-64
2023/04/19 02:43:43;;;;;;;6.25;3.55;;;;;;;4.31;73.06;101935.34;5028737;28;20041;-66
2023/04/19 02:46:10;;;;;;;6.72;3.70;;;;;;;4.29;72.90;101936.25;5030259;28;20147;-57
2023/04/19 02:48:37;;;;;;;9.00;3.50;;;;;;;4.26;73.80;101938.88;5023254;28;20096;-70
2023/04/19 02:51:05;;;;;;;7.45;3.47;;;;;;;4.25;73.90;101937.16;5010067;28;20132;-69
2023/04/19 02:53:32;;;;;;;6.55;3.53;;;;;;;4.23;73.57;101925.88;5027960;28;20786;-62
2023/04/19 02:56:00;;;;;;;5.00;3.30;;;;;;;4.23;73.70;101925.88;5028867;28;20053;-61
2023/04/19 02:58:27;;;;;;;8.38;3.30;;;;;;;4.22;74.45;101927.63;5028545;28;20049;-63
2023/04/19 03:00:55;;;;;;;5.50;3.25;;;;;;;4.18;74.37;101922.47;5034791;28;20048;-63
2023/04/19 03:03:22;;;;;;;6.82;2.80;;;;;;;4.15;74.87;101920.78;5029733;28;20054;-65
2023/04/19 03:05:49;;;;;;;6.78;3.38;;;;;;;4.10;75.28;101922.56;5027236;28;20501;-58
2023/04/19 03:08:16;;;;;;;7.82;3.55;;;;;;;4.04;75.46;101920.88;5030295;28;20049;-63
2023/04/19 03:10:43;;;;;;;7.40;3.53;;;;;;;4.02;75.41;101919.19;5031361;28;20111;-62
2023/04/19 03:13:11;;;;;;;7.85;3.47;;;;;;;3.96;75.47;101909.69;5032503;28;20482;-60
2023/04/19 03:15:38;;;;;;;7.55;3.10;;;;;;;3.95;75.60;101914.91;5034718;28;20436;-61
2023/04/19 03:18:05;;;;;;;9.95;3.80;;;;;;;3.92;76.07;101914.97;5029017;28;20140;-61
2023/04/19 03:20:33;;;;;;;6.13;3.13;;;;;;;3.88;75.81;101902.84;5028445;28;20055;-67
2023/04/19 03:23:01;;;;;;;5.60;2.72;;;;;;;3.85;75.66;101902.88;5030576;28;20058;-59
2023/04/19 03:25:28;;;;;;;7.05;2.95;;;;;;;3.81;76.34;101915.91;5031180;28;20470;-59
2023/04/19 03:27:55;;;;;;;5.63;3.17;;;;;;;3.78;76.90;101902.06;5036572;28;20582;-62
2023/04/19 03:30:23;;;;;;;5.60;2.70;;;;;;;3.75;76.62;101902.09;5026045;28;20054;-61
2023/04/19 03:32:51;;;;;;;4.60;2.90;;;;;;;3.72;77.23;101894.31;5030635;28;20065;-68
2023/04/19 03:35:20;;;;;;;5.22;2.70;;;;;;;3.70;77.48;101898.69;5025677;28;20058;-66
2023/04/19 03:37:47;;;;;;;6.97;3.25;;;;;;;3.66;77.87;101889.19;5038836;28;20049;-65
2023/04/19 03:40:14;;;;;;;5.88;3.38;;;;;;;3.64;78.13;101896.13;5024464;28;20049;-64
2023/04/19 03:42:41;;;;;;;4.53;2.90;;;;;;;3.62;78.94;101887.47;5022576;28;20049;-65
2023/04/19 03:45:09;;;;;;;4.80;2.75;;;;;;;3.60;79.58;101886.63;5032916;28;20053;-60
2023/04/19 03:47:36;;;;;;;7.45;3.35;;;;;;;3.58;79.91;101889.25;5026721;28;20073;-60
2023/04/19 03:50:04;;;;;;;6.65;2.88;;;;;;;3.58;79.48;101891.84;5025719;28;20236;-65
2023/04/19 03:52:31;;;;;;;6.13;3.05;;;;;;;3.56;79.87;101893.63;5024404;28;20056;-66
2023/04/19 03:54:58;;;;;;;7.35;3.30;;;;;;;3.54;80.08;101882.34;5026110;28;20037;-70
2023/04/19 03:57:26;;;;;;;5.55;2.83;;;;;;;3.53;80.18;101883.22;5026198;28;20727;-63
2023/04/19 03:59:53;;;;;;;7.03;2.97;;;;;;;3.51;80.63;101884.97;5032412;28;20045;-58
2023/04/19 04:02:20;;;;;;;6.05;2.92;;;;;;;3.46;81.10;101879.81;5024980;28;20152;-61
2023/04/19 04:04:54;;;;;;;6.00;2.70;;;;;;;3.46;81.49;101876.34;5024618;28;20056;-66
2023/04/19 04:07:23;;;;;;;6.82;3.08;;;;;;;3.43;81.34;101869.44;5021582;28;20952;-68
2023/04/19 04:09:50;;;;;;;10.02;2.65;;;;;;;3.44;82.28;101872.91;5021438;28;20136;-65
2023/04/19 04:12:18;;;;;;;6.22;3.13;;;;;;;3.41;82.52;101873.78;5027297;28;20041;-59
2023/04/19 04:14:46;;;;;;;5.40;2.72;;;;;;;3.39;82.86;101872.09;5037142;28;20128;-63
2023/04/19 04:17:13;;;;;;;7.88;3.15;;;;;;;3.38;83.06;101875.53;5024426;28;20053;-61
2023/04/19 04:19:40;;;;;;;7.15;3.20;;;;;;;3.37;83.42;101863.41;5020841;28;20353;-58
2023/04/19 04:22:07;;;;;;;6.40;3.05;;;;;;;3.34;84.49;101863.47;5020157;28;20136;-61
2023/04/19 04:24:40;;;;;;;10.02;3.25;;;;;;;3.33;84.23;101859.09;5027152;28;20209;-63
2023/04/19 04:27:11;;;;;;;5.65;2.78;;;;;;;3.33;85.34;101859.97;5024583;28;20576;-67
2023/04/19 04:29:38;;;;;;;14.02;3.10;;;;;;;3.33;85.95;101866.91;5025550;28;20049;-57
2023/04/19 04:32:07;;;;;;;7.85;3.45;;;;;;;3.40;86.02;101866.00;5023711;28;20045;-64
2023/04/19 04:34:36;;;;;;;5.00;3.05;;;;;;;3.41;86.49;101854.69;5025234;28;20057;-65
2023/04/19 04:37:03;;;;;;;8.73;3.67;;;;;;;3.41;86.59;101855.56;5022685;28;20045;-65
2023/04/19 04:39:33;;;;;;;7.20;2.88;;;;;;;3.42;87.46;101865.13;5023598;28;20052;-61
2023/04/19 04:42:01;;;;;;;16.98;3.35;;;;;;;3.44;87.61;101858.13;5022505;28;20061;-59
2023/04/19 04:44:29;;;;;;;9.57;3.05;;;;;;;3.48;87.63;101859.84;5025296;28;20127;-60
2023/04/19 04:46:56;;;;;;;5.15;2.70;;;;;;;3.51;87.70;101858.94;5023873;28;21915;-63
2023/04/19 04:49:23;;;;;;;6.85;3.20;;;;;;;3.52;87.91;101848.53;5023471;28;20049;-62
2023/04/19 04:51:50;;;;;;;8.75;3.10;;;;;;;3.55;87.93;101847.59;5024676;28;20049;-62
2023/04/19 04:54:17;;;;;;;11.65;2.92;;;;;;;3.57;88.38;101845.88;5024232;28;20054;-64
2023/04/19 04:56:45;;;;;;;5.22;2.50;;;;;;;3.61;88.72;101850.16;5020333;28;20053;-61
2023/04/19 04:59:12;;;;;;;6.03;2.67;;;;;;;3.67;88.77;101841.41;5022784;28;20521;-63
2023/04/19 05:01:39;;;;;;;10.38;2.60;;;;;;;3.68;88.77;101837.94;5037334;28;20251;-62
2023/04/19 05:04:07;;;;;;;13.00;3.63;;;;;;;3.71;89.23;101838.75;5024052;28;20058;-69
2023/04/19 05:06:34;;;;;;;6.85;3.28;;;;;;;3.72;89.22;101839.63;5019004;28;20041;-67
2023/04/19 05:09:02;;;;;;;9.98;3.33;;;;;;;3.74;88.87;101843.94;5019004;28;20063;-61
2023/04/19 05:11:29;;;;;;;7.78;3.40;;;;;;;3.79;88.71;101838.69;5018399;28;20172;-65
2023/04/19 05:13:56;;;;;;;10.23;3.38;;;;;;;3.91;89.40;101825.50;5021801;28;20607;-63
2023/04/19 05:16:26;;;;;;;7.18;2.60;;;;;;;3.93;88.99;101828.09;5021104;28;20049;-66
2023/04/19 05:18:53;;;;;;;8.23;2.63;;;;;;;3.97;88.88;101824.59;5022664;28;20433;-61
2023/04/19 05:21:21;;;;;;;9.30;2.88;;;;;;;4.02;88.69;101823.63;5019243;28;20053;-66
2023/04/19 05:23:48;;;;;;;6.10;2.75;;;;;;;4.06;89.21;101827.94;5022132;28;20054;-61
2023/04/19 05:26:15;;;;;;;10.80;3.15;;;;;;;4.13;89.02;101831.31;5019937;28;20157;-63
2023/04/19 05:28:44;;;;;;;8.75;3.33;;;;;;;4.17;88.51;101822.56;5025970;28;20567;-59
2023/04/19 05:31:11;;;;;;;7.00;3.20;;;;;;;4.25;88.64;101822.47;5031901;28;20199;-64
2023/04/19 05:33:38;;;;;;;6.43;2.67;;;;;;;4.31;88.63;101828.44;5023313;28;20524;-60
2023/04/19 05:36:06;;;;;;;6.05;2.97;;;;;;;4.40;88.21;101816.19;5022391;28;20514;-62
2023/04/19 05:38:33;;;;;;;5.13;2.60;;;;;;;4.47;88.32;101823.91;5023933;28;20107;-60
2023/04/19 05:41:02;;;;;;;5.85;2.47;;;;;;;4.51;87.95;101812.53;5012951;28;20046;-63
2023/04/19 05:43:29;;;;;;;7.85;2.85;;;;;;;4.60;87.75;101808.94;5022613;28;20459;-61
2023/04/19 05:45:57;;;;;;;11.18;3.13;;;;;;;4.68;87.67;101808.78;5033525;28;20071;-62
2023/04/19 05:48:24;;;;;;;6.93;2.67;;;;;;;4.74;86.64;101816.53;5015237;28;20675;-59
2023/04/19 05:50:55;;;;;;;7.50;2.53;;;;;;;4.84;87.48;101815.50;5026680;28;20076;-65
2023/04/19 05:53:22;;;;;;;10.13;2.75;;;;;;;4.93;87.02;101811.88;5026910;28;20136;-62
2023/04/19 05:55:50;;;;;;;6.15;1.90;;;;;;;4.98;85.97;101810.91;5026796;28;20140;-62
2023/04/19 05:58:18;;;;;;;8.32;2.60;;;;;;;5.06;86.15;101808.19;5025848;28;20405;-59
2023/04/19 06:00:45;;;;;;;7.95;2.65;;;;;;;5.17;85.38;101819.28;5029627;28;20049;-65
2023/04/19 06:03:12;;;;;;;6.68;2.38;;;;;;;5.24;85.09;101807.84;5033862;28;20050;-65
2023/04/19 06:05:40;;;;;;;5.90;2.22;;;;;;;5.29;84.88;101816.47;5012134;28;20482;-62
2023/04/19 06:08:08;;;;;;;7.93;2.67;;;;;;;5.43;84.79;101813.59;5025354;28;20055;-62
2023/04/19 06:10:36;;;;;;;5.50;2.53;;;;;;;5.51;83.93;101797.78;5028903;28;20049;-65
2023/04/19 06:13:22;;;;;;;3.85;2.13;;;;;;;5.59;82.75;101807.22;5034665;28;20399;-59
2023/04/19 06:15:49;;;;;;;9.95;2.33;;;;;;;5.69;82.54;101804.41;5026424;28;20406;-60
2023/04/19 06:18:16;;;;;;;8.70;2.22;;;;;;;5.74;81.46;101807.78;5014788;28;20136;-61
2023/04/19 06:20:46;;;;;;;7.25;2.15;;;;;;;5.81;81.96;101807.66;5025450;28;20059;-62
2023/04/19 06:23:13;;;;;;;6.85;2.08;;;;;;;5.92;81.07;101812.69;5024959;28;20159;-63
2023/04/19 06:25:41;;;;;;;6.53;2.17;;;;;;;6.09;80.98;101807.09;5020371;28;20059;-65
2023/04/19 06:28:09;;;;;;;7.57;2.70;;;;;;;6.19;79.90;101815.59;5025619;28;20169;-63
2023/04/19 06:30:37;;;;;;;8.15;2.17;;;;;;;6.28;79.65;101815.41;5026778;28;20045;-62
2023/04/19 06:33:04;;;;;;;3.97;2.15;;;;;;;6.34;78.99;101803.03;5016196;28;20593;-65
2023/04/19 06:35:31;;;;;;;7.60;2.53;;;;;;;6.46;79.34;101799.28;5019577;28;20053;-68
2023/04/19 06:37:58;;;;;;;8.80;1.92;;;;;;;6.58;78.32;101812.09;5027542;28;20060;-63
2023/04/19 06:40:28;;;;;;;5.32;1.95;;;;;;;6.66;77.06;101804.03;5025255;28;20100;-61
2023/04/19 06:42:55;;;;;;;7.32;1.85;;;;;;;6.77;76.77;101804.66;5023733;28;20934;-61
2023/04/19 06:45:22;;;;;;;4.40;2.03;;;;;;;6.82;74.67;101807.16;5038710;28;20339;-57
2023/04/19 06:47:50;;;;;;;4.50;2.10;;;;;;;6.92;75.22;101803.41;5030838;28;20053;-61
2023/04/19 06:50:17;;;;;;;7.65;2.40;;;;;;;7.05;74.70;101789.13;5024652;28;20034;-60
2023/04/19 06:52:44;;;;;;;5.28;2.08;;;;;;;7.24;74.44;101799.13;5018976;28;20541;-61
2023/04/19 06:55:12;;;;;;;12.70;2.55;;;;;;;7.34;73.07;101785.75;5018882;28;20565;-62
2023/04/19 06:57:39;;;;;;;5.38;1.80;;;;;;;7.49;72.83;101781.84;5029682;28;20143;-58
2023/04/19 07:00:07;;;;;;;5.28;2.20;;;;;;;7.58;71.22;101775.50;5029464;28;20068;-60
2023/04/19 07:02:34;;;;;;;2.97;1.92;;;;;;;7.64;70.52;101769.22;5040816;28;20678;-58
2023/04/19 07:05:02;;;;;;;8.45;1.88;;;;;;;7.74;69.90;101762.81;5035255;28;20379;-64
2023/04/19 07:07:29;;;;;;;4.35;1.95;;;;;;;7.86;69.31;101768.53;5043483;28;20197;-58
2023/04/19 07:09:57;;;;;;;8.18;2.03;;;;;;;8.01;68.95;101767.22;5030963;28;20045;-62
2023/04/19 07:12:24;;;;;;;4.72;2.42;;;;;;;8.06;67.03;101762.72;5028240;28;20497;-62
2023/04/19 07:14:55;;;;;;;10.52;1.98;;;;;;;8.12;66.35;101752.03;5035436;28;20148;-60
2023/04/19 07:17:22;;;;;;;7.38;2.08;;;;;;;8.21;65.87;101757.91;5032950;28;20067;-67
2023/04/19 07:19:50;;;;;;;7.20;2.17;;;;;;;8.27;64.74;101749.84;5036650;28;20060;-62
2023/04/19 07:22:17;;;;;;;3.33;1.88;;;;;;;8.41;63.92;101754.69;5031899;28;20063;-58
2023/04/19 07:24:44;;;;;;;6.05;2.20;;;;;;;8.54;63.96;101748.13;5033161;28;20312;-62
2023/04/19 07:27:13;;;;;;;7.63;2.67;;;;;;;8.66;64.13;101749.50;5036657;28;20139;-61
2023/04/19 07:29:40;;;;;;;4.95;1.88;;;;;;;8.81;64.40;101751.63;5031421;28;20038;-58
2023/04/19 07:32:07;;;;;;;6.50;2.22;;;;;;;8.97;63.47;101741.47;5036512;28;20172;-63
2023/04/19 07:34:36;;;;;;;3.85;2.20;;;;;;;9.02;61.97;101732.50;5032937;28;20061;-62
2023/04/19 07:37:04;;;;;;;6.85;2.20;;;;;;;9.09;61.19;101735.78;5062049;22;20465;-73
2023/04/19 07:39:31;;;;;;;7.60;2.78;;;;;;;9.15;60.48;101727.69;5056542;28;20090;-73
2023/04/19 07:42:00;;;;;;;7.43;1.92;;;;;;;9.22;59.17;101723.91;5049962;28;20050;-73
2023/04/19 07:44:28;;;;;;;7.25;1.70;;;;;;;9.36;60.09;101719.00;5046596;28;20608;-73
2023/04/19 07:47:20;;;;;;;5.32;1.90;;;;;;;9.53;58.84;101718.41;5040475;28;20045;-73
2023/04/19 07:49:52;;;;;;;9.50;2.80;;;;;;;9.58;57.11;101705.09;4995802;28;20451;-73
2023/04/19 07:52:19;;;;;;;6.75;2.50;;;;;;;9.60;56.78;101705.91;5009043;28;20057;-73
2023/04/19 07:55:05;;;;;;;6.93;2.38;;;;;;;9.70;56.92;101703.78;5019470;28;20060;-72
2023/04/19 07:57:34;;;;;;;8.25;2.58;;;;;;;9.80;55.95;101710.41;4999965;28;20041;-72
2023/04/19 08:00:01;;;;;;;6.32;2.42;;;;;;;9.81;56.01;101697.19;5010734;28;20061;-72
2023/04/19 08:02:28;;;;;;;6.47;1.98;;;;;;;9.91;56.13;101697.69;5010195;28;20393;-71
2023/04/19 08:04:56;;;;;;;6.82;2.53;;;;;;;10.01;55.50;101699.06;5010188;28;20139;-72
2023/04/19 08:07:25;;;;;;;5.60;2.25;;;;;;;10.15;54.83;101701.97;5005730;28;20049;-72
2023/04/19 08:09:52;;;;;;;6.65;2.33;;;;;;;10.30;53.24;101692.63;5023523;28;20045;-72
2023/04/19 08:12:19;;;;;;;5.18;1.85;;;;;;;10.38;53.87;101690.56;5010500;28;20152;-72
2023/04/19 08:14:52;;;;;;;8.60;2.00;;;;;;;10.49;52.58;101689.25;5003053;28;20145;-72
2023/04/19 08:17:39;;;;;;;6.15;2.20;;;;;;;10.64;52.86;101688.63;5009938;28;20107;-72
2023/04/19 08:20:10;;;;;;;7.18;2.40;;;;;;;10.77;51.86;101675.78;5014699;28;20132;-74
2023/04/19 08:22:38;;;;;;;6.95;2.65;;;;;;;10.76;51.52;101682.84;5013332;28;20053;-72
2023/04/19 08:25:07;;;;;;;8.00;2.38;;;;;;;10.93;51.75;101679.47;4994595;28;20417;-73
2023/04/19 08:27:34;;;;;;;9.27;2.50;;;;;;;11.04;51.96;101686.91;5011466;28;20064;-73
2023/04/19 08:30:02;;;;;;;8.60;2.65;;;;;;;11.11;51.45;101686.56;5009983;28;20056;-72
2023/04/19 08:32:30;;;;;;;8.20;2.10;;;;;;;11.24;52.31;101678.09;5017171;28;20504;-73
2023/04/19 08:34:59;;;;;;;4.90;2.50;;;;;;;11.42;50.84;101682.56;5026721;28;20064;-72
2023/04/19 08:37:27;;;;;;;11.80;2.67;;;;;;;11.60;51.15;101683.50;5026105;28;20049;-73
2023/04/19 08:39:54;;;;;;;7.53;2.45;;;;;;;11.86;50.38;101684.94;5027526;28;20053;-72
2023/04/19 08:42:21;;;;;;;10.18;2.38;;;;;;;12.01;50.64;101683.34;5024578;28;20072;-73
2023/04/19 08:45:06;;;;;;;7.80;2.45;;;;;;;12.13;48.52;101680.97;5029069;28;20053;-73
2023/04/19 08:47:37;;;;;;;5.53;2.70;;;;;;;12.24;49.40;101685.72;5009735;28;20088;-73
2023/04/19 08:50:24;;;;;;;9.85;2.72;;;;;;;12.41;49.01;101676.97;5011024;28;20041;-72
2023/04/19 08:53:03;;;;;;;6.88;2.53;;;;;;;12.65;48.82;101665.19;4994390;28;20049;-73
2023/04/19 08:55:53;;;;;;;5.15;2.40;;;;;;;12.95;47.65;101659.25;5009057;28;20128;-72
2023/04/19 08:58:25;;;;;;;5.10;2.90;;;;;;;12.99;47.81;101666.09;5033698;28;20091;-73
2023/04/19 09:01:07;;;;;;;6.90;2.45;;;;;;;13.07;47.20;101658.59;5007988;28;20160;-73
2023/04/19 09:03:46;;;;;;;6.10;2.17;;;;;;;13.16;46.71;101657.25;4996687;28;20118;-73
2023/04/19 09:06:37;;;;;;;6.10;2.28;;;;;;;13.45;47.03;101661.00;5009206;28;20069;-73
2023/04/19 09:09:15;;;;;;;8.60;3.25;;;;;;;13.78;46.41;101650.38;5008695;28;20516;-72
2023/04/19 09:12:02;;;;;;;4.38;1.80;;;;;;;14.24;45.36;101647.75;5019525;28;20646;-73
2023/04/19 09:14:30;;;;;;;5.80;2.53;;;;;;;14.27;45.01;101644.91;5009948;28;20149;-72
2023/04/19 09:17:15;;;;;;;6.65;2.20;;;;;;;14.01;42.83;101645.56;5011071;28;20148;-73
2023/04/19 09:19:47;;;;;;;6.40;2.55;;;;;;;13.90;43.57;101632.94;5009806;28;20159;-73
2023/04/19 09:22:14;;;;;;;7.75;2.15;;;;;;;13.61;44.16;101630.13;5004423;28;20120;-72
2023/04/19 09:24:42;;;;;;;4.82;2.28;;;;;;;13.60;44.78;101630.22;4993612;28;20533;-72
2023/04/19 09:27:15;;;;;;;5.90;2.60;;;;;;;13.71;45.45;101619.88;5012277;28;20126;-73
2023/04/19 09:29:51;;;;;;;8.02;2.17;;;;;;;13.87;45.31;101618.09;5027559;28;20578;-73
2023/04/19 09:32:19;;;;;;;7.75;2.70;;;;;;;13.81;45.24;101607.84;5016088;28;20469;-72
2023/04/19 09:34:57;;;;;;;8.32;2.30;;;;;;;14.01;45.47;101612.00;5000294;28;20624;-72
2023/04/19 09:37:25;;;;;;;7.72;2.30;;;;;;;14.32;44.42;101615.50;5021314;28;20162;-73
2023/04/19 09:40:23;;;;;;;6.75;2.80;;;;;;;14.56;42.70;101618.53;4990889;28;20148;-72
2023/04/19 09:42:50;;;;;;;6.65;2.47;;;;;;;14.41;42.61;101602.59;4988124;28;20057;-72
2023/04/19 09:45:20;;;;;;;9.45;2.47;;;;;;;14.41;42.97;101612.34;5035794;28;20128;-72
2023/04/19 09:48:04;;;;;;;9.63;2.72;;;;;;;14.10;42.43;101616.78;4984177;28;20072;-72
2023/04/19 09:50:31;;;;;;;;;;;;;;;13.74;43.17;101609.13;5022328;28;20460;-71
2023/04/19 09:53:09;;;;;;;15.35;3.40;;;;;;;13.46;43.58;101604.50;4991106;28;20349;-71
2023/04/19 09:55:38;;;;;;;5.93;2.83;;;;;;;13.71;43.69;101601.38;5012993;28;20053;-73
2023/04/19 09:58:24;;;;;;;4.10;2.15;;;;;;;14.01;43.77;101604.06;5003769;28;20076;-73
2023/04/19 10:01:01;;;;;;;6.40;3.08;;;;;;;14.23;43.41;101595.72;5010169;28;20132;-72
2023/04/19 10:03:44;;;;;;;4.40;2.17;;;;;;;14.39;43.82;101593.84;5011960;28;20517;-73
2023/04/19 10:06:17;;;;;;;6.22;2.58;;;;;;;14.38;43.17;101592.16;4992530;28;20069;-72
2023/04/19 10:08:49;;;;;;;5.00;2.58;;;;;;;14.37;43.40;101590.47;5015457;28;20124;-72
2023/04/19 10:11:18;;;;;;;5.63;2.72;;;;;;;14.47;43.31;101595.22;5023465;28;20053;-72
2023/04/19 10:13:46;;;;;;;4.55;2.20;;;;;;;14.61;43.62;101592.63;5010315;28;20148;-72
2023/04/19 10:16:13;;;;;;;6.28;2.30;;;;;;;14.72;43.83;101584.00;5022616;28;20124;-74
2023/04/19 10:18:48;;;;;;;8.52;2.70;;;;;;;14.80;41.72;101584.38;4997909;28;20132;-74
2023/04/19 10:21:17;;;;;;;9.88;2.60;;;;;;;14.94;42.71;101577.28;5017238;28;20056;-72
2023/04/19 10:23:44;;;;;;;8.38;2.67;;;;;;;15.05;42.58;101581.94;5000724;28;20135;-72
2023/04/19 10:26:11;;;;;;;7.57;2.13;;;;;;;15.04;42.18;101574.94;5035756;28;20466;-72
2023/04/19 10:28:40;;;;;;;7.00;2.45;;;;;;;14.85;41.37;101572.53;5030623;28;20073;-72
2023/04/19 10:31:12;;;;;;;6.45;2.22;;;;;;;14.92;42.50;101571.22;4976517;28;20077;-71
2023/04/19 10:33:40;;;;;;;4.85;2.30;;;;;;;15.23;41.45;101582.56;5004439;28;20045;-71
2023/04/19 10:36:08;;;;;;;5.13;2.22;;;;;;;15.14;41.63;101581.34;4996845;28;20136;-72
2023/04/19 10:38:47;;;;;;;7.68;2.67;;;;;;;15.22;40.92;101572.03;5024548;28;20167;-72
2023/04/19 10:41:15;;;;;;;5.40;2.55;;;;;;;15.09;41.38;101572.84;4992460;28;20609;-72
2023/04/19 10:44:35;;;;;;;12.93;3.30;;;;;;;15.13;41.66;101574.34;4988434;28;20608;-72
2023/04/19 10:47:04;;;;;;;4.95;2.90;;;;;;;15.23;41.02;101569.31;5025613;28;20091;-72
2023/04/19 10:49:43;;;;;;;7.57;2.45;;;;;;;15.23;40.85;101557.84;5024155;28;20055;-73
2023/04/19 10:52:28;;;;;;;10.95;2.53;;;;;;;15.18;41.20;101568.75;5032700;28;20057;-73
2023/04/19 10:54:55;;;;;;;8.00;2.65;;;;;;;15.16;41.22;101571.50;5022628;28;20140;-73
2023/04/19 10:57:24;;;;;;;6.95;3.05;;;;;;;15.38;41.09;101562.16;5033747;28;22058;-72
2023/04/19 11:00:20;;;;;;;6.78;2.97;;;;;;;15.64;40.88;101565.84;5033460;28;20056;-71
2023/04/19 11:02:47;;;;;;;8.40;2.55;;;;;;;15.73;40.56;101564.38;5019931;28;20146;-73
2023/04/19 11:05:15;;;;;;;5.78;2.38;;;;;;;15.96;40.54;101563.72;5026091;28;20464;-72
2023/04/19 11:07:45;;;;;;;6.25;2.60;;;;;;;16.13;40.33;101555.47;4978532;28;20056;-73
2023/04/19 11:10:27;;;;;;;6.82;2.13;;;;;;;16.24;40.76;101559.19;5010471;28;20041;-73
2023/04/19 11:12:54;;;;;;;5.18;2.13;;;;;;;16.32;40.14;101559.53;5016054;28;20041;-72
2023/04/19 11:15:23;;;;;;;4.38;2.22;;;;;;;16.55;39.32;101539.34;5009646;28;20041;-73
2023/04/19 11:17:51;;;;;;;11.57;2.80;;;;;;;16.99;39.30;101538.91;4995363;28;20543;-73
2023/04/19 11:20:30;;;;;;;8.52;2.50;;;;;;;17.32;38.61;101543.59;5021945;28;20055;-73
2023/04/19 11:22:59;;;;;;;9.20;2.40;;;;;;;17.18;38.41;101536.63;5024173;28;20077;-73
2023/04/19 11:25:30;;;;;;;7.85;3.10;;;;;;;16.96;37.64;101539.13;5043179;28;20075;-73
2023/04/19 11:27:59;;;;;;;7.72;2.13;;;;;;;16.79;38.73;101534.97;5036887;28;20051;-72
2023/04/19 11:30:29;;;;;;;5.50;3.03;;;;;;;16.44;38.89;101530.31;5000123;28;20056;-72
2023/04/19 11:32:57;;;;;;;14.85;2.83;;;;;;;16.17;38.61;101525.09;5021392;28;20063;-72
2023/04/19 11:35:29;;;;;;;9.68;3.35;;;;;;;15.98;38.84;101534.38;5044058;28;20132;-73
2023/04/19 11:37:57;;;;;;;6.38;2.38;;;;;;;16.02;39.47;101520.78;5021157;28;20049;-73
2023/04/19 11:40:25;;;;;;;8.10;2.55;;;;;;;16.18;39.37;101521.47;5018858;28;20067;-72